Nearby METAR Reports

 

KBGR - Bangor, Maine, USA
Distance from station: E 5mi, 8km
Updated: Sat, 18-Nov-2017 5:53pm EST
Overcast
Overcast
 Wind from ESE
Wind: ESE 6 mph , 9 km/h
Temperature: 36°F , 2°C
Wind Chill: 31°F , -1°C
Dew Point: 19°F , -7°C
Humidity: 52%
Barometer: 29.74 inHg , 1007.1 hPa
Clouds: Overcast
Visibility: 10 miles , 16 km
Cloud details: Partly cloudy 7000 ft
Overcast 12000 ft
2017/11/18 22:53 KBGR 182253Z 12005KT 10SM SCT070 OVC120 02/M07 A2974 RMK AO2 SLP074 T00171067
KBHB - Bar Harbor, Maine, USA
Distance from station: SE 37mi, 59km
Updated: Sat, 18-Nov-2017 2:56am EST
NOT Current
Clear
Clear
 Wind from W
Wind: W 6 mph , 9 km/h
Temperature: 27°F , -3°C
Wind Chill: 20°F , -7°C
Dew Point: 18°F , -8°C
Humidity: 69%
Barometer: 29.89 inHg , 1012.2 hPa
Clouds: Clear
Visibility: 10 miles , 16 km
2017/11/18 07:56 KBHB 180756Z AUTO 28005KT 10SM CLR M03/M08 A2989 RMK AO2 SLP126 T10281078 FZRANO PNO $
 
KWVL - Waterville, Maine, USA
Distance from station: WSW 42mi, 68km
Updated: Sat, 18-Nov-2017 5:56pm EST
Overcast
Overcast
 Wind from varies
Wind: varies 3 mph , 6 km/h
Temperature: 36°F , 2°C
Dew Point: 21°F , -6°C
Humidity: 56%
Barometer: 29.68 inHg , 1005.1 hPa
Clouds: Overcast
Visibility: 10 miles , 16 km
Cloud details: Overcast 10000 ft
2017/11/18 22:56 KWVL 182256Z AUTO VRB03KT 10SM OVC100 02/M06 A2968 RMK AO2 SLP082 T00221061 FZRANO
KRKD - Rockland/Knox, Maine, USA
Distance from station: S 52mi, 84km
Updated: Sat, 18-Nov-2017 5:56pm EST
Overcast
Overcast
 Wind from SSW
Wind: SSW 9 mph , 15 km/h
Temperature: 43°F , 6°C
Wind Chill: 38°F , 3°C
Dew Point: 32°F , 0°C
Humidity: 66%
Barometer: 29.75 inHg , 1007.5 hPa
Clouds: Overcast
Visibility: 10 miles , 16 km
Cloud details: Overcast 11000 ft
2017/11/18 22:56 KRKD 182256Z AUTO 21008KT 10SM OVC110 06/00 A2975 RMK AO2 SLP075 T00560000
 
KAUG - Augusta, Maine, USA
Distance from station: SW 55mi, 89km
Updated: Sat, 18-Nov-2017 5:53pm EST
Overcast
Overcast
 Wind from SSE
Wind: SSE 8 mph , 13 km/h
Temperature: 37°F , 3°C
Wind Chill: 31°F , -1°C
Dew Point: 21°F , -6°C
Humidity: 52%
Barometer: 29.72 inHg , 1006.4 hPa
Clouds: Overcast
Visibility: 10 miles , 16 km
Cloud details: Overcast 10000 ft
2017/11/18 22:53 KAUG 182253Z AUTO 15007KT 10SM OVC100 03/M06 A2972 RMK AO2 SLP070 T00281061
KGNR - Greenville, Maine, USA
Distance from station: NW 55mi, 89km
Updated: Fri, 17-Nov-2017 8:56pm EST
NOT Current

 Wind from NW
Wind: NW 28 mph , 44 km/h, Gust: 41 mph , 67 km/h
Temperature: 21°F , -6°C
Wind Chill: 3°F , -16°C
Dew Point: 18°F , -8°C
Humidity: 86%
Barometer: 29.76 inHg , 1007.8 hPa
2017/11/18 01:56 KGNR 180156Z AUTO 31024G36KT M06/M08 A2976 RMK AO1 PK WND 32039/0122 SLP099 T10561083
 
KMLT - Millinocket, Maine, USA
Distance from station: N 59mi, 95km
Updated: Sat, 18-Nov-2017 5:53pm EST
Overcast
Overcast
 Wind from calm
Wind: Calm
Temperature: 32°F , 0°C
Dew Point: 19°F , -7°C
Humidity: 60%
Barometer: 29.75 inHg , 1007.5 hPa
Clouds: Overcast
Visibility: 10 miles , 16 km
Cloud details: Overcast 9000 ft
2017/11/18 22:53 KMLT 182253Z AUTO 00000KT 10SM OVC090 00/M07 A2975 RMK AO2 SLP084 T00001067 TSNO
KIWI - Wiscasset, Maine, USA
Distance from station: SW 70mi, 113km
Updated: Sat, 18-Nov-2017 5:53pm EST
Overcast
Overcast
 Wind from E
Wind: E 3 mph , 6 km/h
Temperature: 39°F , 4°C
Dew Point: 30°F , -1°C
Humidity: 70%
Barometer: 29.74 inHg , 1007.1 hPa
Clouds: Overcast
Visibility: 10 miles , 16 km
Cloud details: Overcast 10000 ft
2017/11/18 22:53 KIWI 182253Z AUTO 08003KT 10SM OVC100 04/M01 A2974 RMK AO2 SLP071 T00441011
 
CWSS - St. Stephen (mar, New Brunswick, Canada
Distance from station: ENE 86mi, 138km
Updated: Sat, 18-Nov-2017 5:00pm EST

 Wind from calm
Wind: Calm
Temperature: 32°F , 0°C
Dew Point: 25°F , -4°C
Humidity: 75%
2017/11/18 22:00 CWSS 182200Z AUTO 00000KT 00/M04 RMK AO1 SOG 00 8008 SLP086 T00001044
KLEW - Auburn/Lewiston, Maine, USA
Distance from station: SW 86mi, 138km
Updated: Sat, 18-Nov-2017 5:56pm EST
Overcast
Overcast
 Wind from calm
Wind: Calm
Temperature: 37°F , 3°C
Dew Point: 28°F , -2°C
Humidity: 70%
Barometer: 29.72 inHg , 1006.4 hPa
Clouds: Overcast
Visibility: 10 miles , 16 km
Cloud details: Mostly cloudy 3600 ft
Mostly cloudy 5500 ft
Overcast 7500 ft
2017/11/18 22:56 KLEW 182256Z AUTO 00000KT 10SM BKN036 BKN055 OVC075 03/M02 A2972 RMK AO2 SLP079 T00281022
 
KHUL - Houlton, Maine, USA
Distance from station: NNE 105mi, 169km
Updated: Sat, 18-Nov-2017 5:53pm EST
Mostly cloudy
Mostly cloudy
 Wind from calm
Wind: Calm
Temperature: 30°F , -1°C
Dew Point: 23°F , -5°C
Humidity: 75%
Barometer: 29.73 inHg , 1006.8 hPa
Clouds: Mostly cloudy
Visibility: 10 miles , 16 km
Cloud details: Mostly cloudy 11000 ft
2017/11/18 22:53 KHUL 182253Z AUTO 00000KT 10SM BKN110 M01/M05 A2973 RMK AO2 SLP073 T10061050
KPWM - Portland, Maine, USA
Distance from station: SW 105mi, 170km
Updated: Sat, 18-Nov-2017 5:51pm EST
Overcast
Overcast
 Wind from calm
Wind: Calm
Temperature: 39°F , 4°C
Dew Point: 27°F , -3°C
Humidity: 61%
Barometer: 29.73 inHg , 1006.8 hPa
Clouds: Overcast
Visibility: 10 miles , 16 km
Cloud details: Overcast 7000 ft
2017/11/18 22:51 KPWM 182251Z 00000KT 10SM OVC070 04/M03 A2973 RMK AO2 SLP067 T00441028
 
KBML - Berlin, New Hampshire, USA
Distance from station: W 113mi, 181km
Updated: Sat, 18-Nov-2017 5:52pm EST
Overcast
Overcast
 Wind from calm
Wind: Calm
Temperature: 34°F , 1°C
Dew Point: 23°F , -5°C
Humidity: 65%
Barometer: 29.61 inHg , 1002.7 hPa
Clouds: Overcast
Visibility: 10 miles , 16 km
Cloud details: Overcast 6000 ft
2017/11/18 22:52 KBML 182252Z AUTO 00000KT 10SM OVC060 01/M05 A2961 RMK AO2 SLP046 T00111050
KIZG - Fryeburg, Maine, USA
Distance from station: WSW 116mi, 186km
Updated: Sat, 18-Nov-2017 5:54pm EST
Overcast
Overcast
 Wind from calm
Wind: Calm
Temperature: 37°F , 3°C
Dew Point: 21°F , -6°C
Humidity: 52%
Barometer: 29.69 inHg , 1005.4 hPa
Clouds: Overcast
Visibility: 10 miles , 16 km
Cloud details: Few Clouds 3300 ft
Mostly cloudy 4500 ft
Overcast 5500 ft
2017/11/18 22:54 KIZG 182254Z AUTO 00000KT 10SM FEW033 BKN045 OVC055 03/M06 A2969 RMK AO2 SLP062 T00281061
 
CWPE - Point Lepreau, New Brunswick, Canada
Distance from station: E 121mi, 195km
Updated: Sat, 18-Nov-2017 5:00pm EST

 Wind from NNW
Wind: NNW 2 mph , 4 km/h
Temperature: 36°F , 2°C
Dew Point: 27°F , -3°C
Humidity: 70%
2017/11/18 22:00 CWPE 182200Z AUTO 34002KT 02/M03 RMK AO1 SOG 02 8004 SLP087 T00181029
KMWN - Mount Washington, New Hampshire, USA
Distance from station: WSW 123mi, 198km
Updated: Sat, 18-Nov-2017 5:49pm EST
Freezing fog, Overcast
Freezing fog, Overcast
 Wind from SW
Wind: SW 37 mph , 59 km/h, Gust: 48 mph , 78 km/h
Temperature: 27°F , -3°C
Wind Chill: 9°F , -13°C
Dew Point: 27°F , -3°C
Humidity: 100%
Summary: Freezing Fog
Clouds: Overcast
Visibility: 1/16 mile , 0.1 km
Cloud details: Overcast 200 ft
2017/11/18 22:49 KMWN 182249Z 23032G42KT 1/16SM FZFG VV002 M03/M03 RMK VRY LGT ICG
 
KPQI - Presque Isle, Maine, USA
Distance from station: ESE 136mi, 219km
Updated: Sat, 18-Nov-2017 5:56pm EST
Overcast
Overcast
 Wind from SE
Wind: SE 5 mph , 7 km/h
Temperature: 28°F , -2°C
Wind Chill: 22°F , -6°C
Dew Point: 21°F , -6°C
Humidity: 74%
Barometer: 29.74 inHg , 1007.1 hPa
Clouds: Overcast
Visibility: 10 miles , 16 km
Cloud details: Overcast 9000 ft
2017/11/18 22:56 KPQI 182256Z AUTO 13004KT 10SM OVC090 M02/M06 A2974 RMK AO2 SLP117 T10221056 FZRANO
KCAR - Caribou, Maine, USA
Distance from station: NNE 148mi, 238km
Updated: Sat, 18-Nov-2017 5:54pm EST
Overcast
Overcast
 Wind from E
Wind: E 5 mph , 7 km/h
Temperature: 28°F , -2°C
Wind Chill: 22°F , -6°C
Dew Point: 19°F , -7°C
Humidity: 69%
Barometer: 29.71 inHg , 1006.1 hPa
Clouds: Overcast
Visibility: 10 miles , 16 km
Cloud details: Mostly cloudy 9000 ft
Overcast 11000 ft
2017/11/18 22:54 KCAR 182254Z AUTO 09004KT 10SM BKN090 OVC110 M02/M07 A2971 RMK AO2 SLP074 T10221067